sensor_id;sensor_type;location;lat;lon;timestamp;pressure;altitude;pressure_sealevel;temperature;humidity
5691;BME280;2870;42.680;23.364;2023-06-10T00:00:46;94716.75;;;18.96;100.00
5691;BME280;2870;42.680;23.364;2023-06-10T00:03:14;94726.53;;;18.93;100.00
5691;BME280;2870;42.680;23.364;2023-06-10T00:05:41;94726.53;;;18.93;100.00
5691;BME280;2870;42.680;23.364;2023-06-10T00:08:07;94731.06;;;18.98;100.00
5691;BME280;2870;42.680;23.364;2023-06-10T00:10:37;94735.19;;;18.95;100.00
5691;BME280;2870;42.680;23.364;2023-06-10T00:13:05;94733.41;;;18.76;100.00
5691;BME280;2870;42.680;23.364;2023-06-10T00:15:34;94730.13;;;18.68;100.00
5691;BME280;2870;42.680;23.364;2023-06-10T00:18:01;94736.91;;;18.63;100.00
5691;BME280;2870;42.680;23.364;2023-06-10T00:20:30;94728.53;;;18.53;100.00
5691;BME280;2870;42.680;23.364;2023-06-10T00:22:58;94721.63;;;18.57;100.00
5691;BME280;2870;42.680;23.364;2023-06-10T00:25:26;94731.38;;;18.53;100.00
5691;BME280;2870;42.680;23.364;2023-06-10T00:27:55;94724.50;;;18.45;100.00
5691;BME280;2870;42.680;23.364;2023-06-10T00:30:22;94724.41;;;18.31;100.00
5691;BME280;2870;42.680;23.364;2023-06-10T00:32:48;94724.41;;;18.31;100.00
5691;BME280;2870;42.680;23.364;2023-06-10T00:35:15;94720.22;;;18.32;100.00
5691;BME280;2870;42.680;23.364;2023-06-10T00:37:43;94731.81;;;18.36;100.00
5691;BME280;2870;42.680;23.364;2023-06-10T00:40:11;94734.31;;;18.30;100.00
5691;BME280;2870;42.680;23.364;2023-06-10T00:42:38;94736.25;;;18.39;100.00
5691;BME280;2870;42.680;23.364;2023-06-10T00:45:06;94741.38;;;18.54;100.00
5691;BME280;2870;42.680;23.364;2023-06-10T00:47:33;94734.75;;;18.50;100.00
5691;BME280;2870;42.680;23.364;2023-06-10T00:50:01;94727.22;;;18.43;100.00
5691;BME280;2870;42.680;23.364;2023-06-10T00:52:29;94732.41;;;18.46;100.00
5691;BME280;2870;42.680;23.364;2023-06-10T00:54:57;94726.13;;;18.36;100.00
5691;BME280;2870;42.680;23.364;2023-06-10T00:57:25;94728.34;;;18.38;100.00
5691;BME280;2870;42.680;23.364;2023-06-10T00:59:51;94735.25;;;18.46;100.00
5691;BME280;2870;42.680;23.364;2023-06-10T01:02:18;94736.09;;;18.49;100.00
5691;BME280;2870;42.680;23.364;2023-06-10T01:04:45;94734.13;;;18.51;100.00
5691;BME280;2870;42.680;23.364;2023-06-10T01:07:18;94734.84;;;18.52;100.00
5691;BME280;2870;42.680;23.364;2023-06-10T01:09:54;94739.16;;;18.53;100.00
5691;BME280;2870;42.680;23.364;2023-06-10T01:12:32;94738.78;;;18.59;100.00
5691;BME280;2870;42.680;23.364;2023-06-10T01:15:00;94747.63;;;18.65;100.00
5691;BME280;2870;42.680;23.364;2023-06-10T01:17:29;94746.06;;;18.62;100.00
5691;BME280;2870;42.680;23.364;2023-06-10T01:19:57;94750.38;;;18.63;100.00
5691;BME280;2870;42.680;23.364;2023-06-10T01:22:26;94737.63;;;18.64;100.00
5691;BME280;2870;42.680;23.364;2023-06-10T01:24:54;94748.38;;;18.65;100.00
5691;BME280;2870;42.680;23.364;2023-06-10T01:27:26;94740.38;;;18.62;100.00
5691;BME280;2870;42.680;23.364;2023-06-10T01:29:59;94712.28;;;18.42;100.00
5691;BME280;2870;42.680;23.364;2023-06-10T01:32:32;94733.63;;;18.55;100.00
5691;BME280;2870;42.680;23.364;2023-06-10T01:35:01;94698.31;;;18.21;100.00
5691;BME280;2870;42.680;23.364;2023-06-10T01:37:30;94709.72;;;18.35;100.00
5691;BME280;2870;42.680;23.364;2023-06-10T01:40:02;94729.41;;;18.56;100.00
5691;BME280;2870;42.680;23.364;2023-06-10T01:42:31;94742.47;;;18.61;100.00
5691;BME280;2870;42.680;23.364;2023-06-10T01:44:58;94733.31;;;18.63;100.00
5691;BME280;2870;42.680;23.364;2023-06-10T01:47:25;94729.38;;;18.68;100.00
5691;BME280;2870;42.680;23.364;2023-06-10T01:49:52;94724.56;;;18.59;100.00
5691;BME280;2870;42.680;23.364;2023-06-10T01:52:19;94731.84;;;18.62;100.00
5691;BME280;2870;42.680;23.364;2023-06-10T01:54:47;94731.31;;;18.65;100.00
5691;BME280;2870;42.680;23.364;2023-06-10T01:57:14;94727.28;;;18.68;100.00
5691;BME280;2870;42.680;23.364;2023-06-10T01:59:41;94728.25;;;18.73;100.00
5691;BME280;2870;42.680;23.364;2023-06-10T02:02:09;94716.88;;;18.73;100.00
5691;BME280;2870;42.680;23.364;2023-06-10T02:04:36;94719.19;;;18.76;100.00
5691;BME280;2870;42.680;23.364;2023-06-10T02:07:04;94713.81;;;18.69;100.00
5691;BME280;2870;42.680;23.364;2023-06-10T02:09:31;94721.31;;;18.76;100.00
5691;BME280;2870;42.680;23.364;2023-06-10T02:12:01;94712.06;;;18.64;100.00
5691;BME280;2870;42.680;23.364;2023-06-10T02:14:28;94714.38;;;18.79;100.00
5691;BME280;2870;42.680;23.364;2023-06-10T02:16:55;94716.91;;;18.87;100.00
5691;BME280;2870;42.680;23.364;2023-06-10T02:19:23;94718.06;;;18.82;100.00
5691;BME280;2870;42.680;23.364;2023-06-10T02:21:50;94709.13;;;18.87;100.00
5691;BME280;2870;42.680;23.364;2023-06-10T02:24:17;94708.91;;;18.83;100.00
5691;BME280;2870;42.680;23.364;2023-06-10T02:26:44;94708.91;;;18.83;100.00
5691;BME280;2870;42.680;23.364;2023-06-10T02:29:14;94706.81;;;18.84;100.00
5691;BME280;2870;42.680;23.364;2023-06-10T02:31:41;94698.06;;;18.79;100.00
5691;BME280;2870;42.680;23.364;2023-06-10T02:34:08;94691.50;;;18.77;100.00
5691;BME280;2870;42.680;23.364;2023-06-10T02:36:34;94693.91;;;18.69;100.00
5691;BME280;2870;42.680;23.364;2023-06-10T02:39:02;94697.59;;;18.71;100.00
5691;BME280;2870;42.680;23.364;2023-06-10T02:41:29;94698.34;;;18.72;100.00
5691;BME280;2870;42.680;23.364;2023-06-10T02:43:57;94694.25;;;18.75;100.00
5691;BME280;2870;42.680;23.364;2023-06-10T02:46:25;94697.44;;;18.81;100.00
5691;BME280;2870;42.680;23.364;2023-06-10T02:48:54;94688.41;;;18.85;100.00
5691;BME280;2870;42.680;23.364;2023-06-10T02:51:21;94687.53;;;18.82;100.00
5691;BME280;2870;42.680;23.364;2023-06-10T02:53:47;94689.94;;;18.74;100.00
5691;BME280;2870;42.680;23.364;2023-06-10T02:56:16;94686.03;;;18.67;100.00
5691;BME280;2870;42.680;23.364;2023-06-10T02:58:43;94686.03;;;18.67;100.00
5691;BME280;2870;42.680;23.364;2023-06-10T03:01:09;94685.66;;;18.87;100.00
5691;BME280;2870;42.680;23.364;2023-06-10T03:03:38;94679.75;;;18.83;100.00
5691;BME280;2870;42.680;23.364;2023-06-10T03:06:08;94690.09;;;18.90;100.00
5691;BME280;2870;42.680;23.364;2023-06-10T03:08:35;94687.38;;;19.05;100.00
5691;BME280;2870;42.680;23.364;2023-06-10T03:11:03;94696.22;;;18.98;100.00
5691;BME280;2870;42.680;23.364;2023-06-10T03:13:30;94694.09;;;18.85;100.00
5691;BME280;2870;42.680;23.364;2023-06-10T03:15:57;94691.56;;;18.91;100.00
5691;BME280;2870;42.680;23.364;2023-06-10T03:18:26;94692.31;;;18.91;100.00
5691;BME280;2870;42.680;23.364;2023-06-10T03:20:54;94688.84;;;18.93;100.00
5691;BME280;2870;42.680;23.364;2023-06-10T03:23:21;94703.69;;;18.91;100.00
5691;BME280;2870;42.680;23.364;2023-06-10T03:25:48;94708.22;;;18.96;100.00
5691;BME280;2870;42.680;23.364;2023-06-10T03:28:15;94712.63;;;18.99;100.00
5691;BME280;2870;42.680;23.364;2023-06-10T03:30:42;94712.78;;;19.01;100.00
5691;BME280;2870;42.680;23.364;2023-06-10T03:33:09;94717.88;;;18.91;100.00
5691;BME280;2870;42.680;23.364;2023-06-10T03:35:35;94712.78;;;18.76;100.00
5691;BME280;2870;42.680;23.364;2023-06-10T03:38:04;94726.47;;;18.79;100.00
5691;BME280;2870;42.680;23.364;2023-06-10T03:40:30;94727.56;;;18.86;100.00
5691;BME280;2870;42.680;23.364;2023-06-10T03:42:57;94728.91;;;18.85;100.00
5691;BME280;2870;42.680;23.364;2023-06-10T03:45:24;94721.38;;;18.52;100.00
5691;BME280;2870;42.680;23.364;2023-06-10T03:47:53;94724.56;;;18.59;100.00
5691;BME280;2870;42.680;23.364;2023-06-10T03:50:21;94721.16;;;18.48;100.00
5691;BME280;2870;42.680;23.364;2023-06-10T03:52:48;94726.13;;;18.36;100.00
5691;BME280;2870;42.680;23.364;2023-06-10T03:55:17;94719.41;;;18.18;100.00
5691;BME280;2870;42.680;23.364;2023-06-10T03:57:43;94713.00;;;18.17;100.00
5691;BME280;2870;42.680;23.364;2023-06-10T04:00:11;94713.84;;;18.20;100.00
5691;BME280;2870;42.680;23.364;2023-06-10T04:02:38;94677.25;;;18.00;100.00
5691;BME280;2870;42.680;23.364;2023-06-10T04:05:11;94720.63;;;18.26;100.00
5691;BME280;2870;42.680;23.364;2023-06-10T04:07:37;94720.75;;;18.28;100.00
5691;BME280;2870;42.680;23.364;2023-06-10T04:10:07;94711.34;;;18.26;100.00
5691;BME280;2870;42.680;23.364;2023-06-10T04:12:35;94707.06;;;18.13;100.00
5691;BME280;2870;42.680;23.364;2023-06-10T04:15:02;94715.47;;;18.11;100.00
5691;BME280;2870;42.680;23.364;2023-06-10T04:17:29;94726.69;;;18.09;100.00
5691;BME280;2870;42.680;23.364;2023-06-10T04:19:56;94726.56;;;18.19;100.00
5691;BME280;2870;42.680;23.364;2023-06-10T04:22:23;94698.56;;;18.13;100.00
5691;BME280;2870;42.680;23.364;2023-06-10T04:24:50;94735.38;;;18.37;100.00
5691;BME280;2870;42.680;23.364;2023-06-10T04:27:17;94728.13;;;18.34;100.00
5691;BME280;2870;42.680;23.364;2023-06-10T04:29:45;94729.75;;;18.25;100.00
5691;BME280;2870;42.680;23.364;2023-06-10T04:32:12;94737.78;;;18.28;100.00
5691;BME280;2870;42.680;23.364;2023-06-10T04:34:38;94737.03;;;18.28;100.00
5691;BME280;2870;42.680;23.364;2023-06-10T04:37:05;94724.47;;;18.19;100.00
5691;BME280;2870;42.680;23.364;2023-06-10T04:39:32;94729.41;;;18.19;100.00
5691;BME280;2870;42.680;23.364;2023-06-10T04:41:59;94725.13;;;18.06;100.00
5691;BME280;2870;42.680;23.364;2023-06-10T04:44:27;94720.50;;;18.24;100.00
5691;BME280;2870;42.680;23.364;2023-06-10T04:46:55;94715.41;;;18.35;100.00
5691;BME280;2870;42.680;23.364;2023-06-10T04:49:22;94727.69;;;18.14;100.00
5691;BME280;2870;42.680;23.364;2023-06-10T04:51:48;94724.81;;;18.25;100.00
5691;BME280;2870;42.680;23.364;2023-06-10T04:54:16;94721.09;;;18.35;100.00
5691;BME280;2870;42.680;23.364;2023-06-10T04:56:43;94722.50;;;18.47;100.00
5691;BME280;2870;42.680;23.364;2023-06-10T04:59:10;94723.06;;;18.69;100.00
5691;BME280;2870;42.680;23.364;2023-06-10T05:01:37;94720.59;;;18.64;100.00
5691;BME280;2870;42.680;23.364;2023-06-10T05:04:05;94725.75;;;18.79;100.00
5691;BME280;2870;42.680;23.364;2023-06-10T05:06:33;94725.38;;;18.98;100.00
5691;BME280;2870;42.680;23.364;2023-06-10T05:09:01;94720.84;;;18.93;100.00
5691;BME280;2870;42.680;23.364;2023-06-10T05:11:28;94730.56;;;18.76;100.00
5691;BME280;2870;42.680;23.364;2023-06-10T05:13:55;94718.75;;;18.68;100.00
5691;BME280;2870;42.680;23.364;2023-06-10T05:16:22;94716.50;;;18.41;100.00
5691;BME280;2870;42.680;23.364;2023-06-10T05:18:49;94720.00;;;18.53;100.00
5691;BME280;2870;42.680;23.364;2023-06-10T05:21:19;94724.53;;;18.70;100.00
5691;BME280;2870;42.680;23.364;2023-06-10T05:23:46;94723.81;;;18.70;100.00
5691;BME280;2870;42.680;23.364;2023-06-10T05:26:13;94719.53;;;18.83;100.00
5691;BME280;2870;42.680;23.364;2023-06-10T05:28:39;94732.38;;;19.09;100.00
5691;BME280;2870;42.680;23.364;2023-06-10T05:31:07;94726.28;;;19.15;100.00
5691;BME280;2870;42.680;23.364;2023-06-10T05:33:33;94729.81;;;19.01;100.00
5691;BME280;2870;42.680;23.364;2023-06-10T05:36:00;94729.50;;;18.95;100.00
5691;BME280;2870;42.680;23.364;2023-06-10T05:38:28;94717.63;;;19.13;100.00
5691;BME280;2870;42.680;23.364;2023-06-10T05:40:55;94735.19;;;18.95;100.00
5691;BME280;2870;42.680;23.364;2023-06-10T05:43:24;94726.19;;;18.87;100.00
5691;BME280;2870;42.680;23.364;2023-06-10T05:45:51;94734.69;;;19.13;100.00
5691;BME280;2870;42.680;23.364;2023-06-10T05:48:17;94738.75;;;19.35;100.00
5691;BME280;2870;42.680;23.364;2023-06-10T05:50:45;94731.53;;;19.06;100.00
5691;BME280;2870;42.680;23.364;2023-06-10T05:53:13;94731.25;;;19.28;100.00
5691;BME280;2870;42.680;23.364;2023-06-10T05:55:43;94740.13;;;19.48;100.00
5691;BME280;2870;42.680;23.364;2023-06-10T05:58:10;94735.28;;;19.50;100.00
5691;BME280;2870;42.680;23.364;2023-06-10T06:00:37;94745.16;;;19.75;100.00
5691;BME280;2870;42.680;23.364;2023-06-10T06:03:06;94748.63;;;19.87;100.00
5691;BME280;2870;42.680;23.364;2023-06-10T06:05:34;94743.22;;;20.07;100.00
5691;BME280;2870;42.680;23.364;2023-06-10T06:08:02;94746.28;;;20.11;100.00
5691;BME280;2870;42.680;23.364;2023-06-10T06:10:30;94743.63;;;20.29;100.00
5691;BME280;2870;42.680;23.364;2023-06-10T06:12:58;94742.69;;;20.24;100.00
5691;BME280;2870;42.680;23.364;2023-06-10T06:15:25;94740.25;;;20.19;100.00
5691;BME280;2870;42.680;23.364;2023-06-10T06:17:52;94743.09;;;20.19;100.00
5691;BME280;2870;42.680;23.364;2023-06-10T06:20:19;94741.28;;;20.39;100.00
5691;BME280;2870;42.680;23.364;2023-06-10T06:22:46;94748.72;;;20.17;100.00
5691;BME280;2870;42.680;23.364;2023-06-10T06:25:13;94742.25;;;20.44;99.93
5691;BME280;2870;42.680;23.364;2023-06-10T06:27:40;94741.28;;;20.39;98.78
5691;BME280;2870;42.680;23.364;2023-06-10T06:30:09;94743.66;;;20.15;100.00
5691;BME280;2870;42.680;23.364;2023-06-10T06:32:36;94743.13;;;20.05;100.00
5691;BME280;2870;42.680;23.364;2023-06-10T06:35:04;94746.50;;;20.15;100.00
5691;BME280;2870;42.680;23.364;2023-06-10T06:37:33;94751.13;;;20.22;98.98
5691;BME280;2870;42.680;23.364;2023-06-10T06:40:00;94740.47;;;20.23;99.17
5691;BME280;2870;42.680;23.364;2023-06-10T06:42:27;94741.13;;;20.64;97.41
5691;BME280;2870;42.680;23.364;2023-06-10T06:44:53;94735.81;;;20.43;97.89
5691;BME280;2870;42.680;23.364;2023-06-10T06:47:21;94739.00;;;20.79;99.28
5691;BME280;2870;42.680;23.364;2023-06-10T06:49:48;94734.53;;;20.46;98.04
5691;BME280;2870;42.680;23.364;2023-06-10T06:52:15;94732.59;;;20.64;97.02
5691;BME280;2870;42.680;23.364;2023-06-10T06:54:42;94727.78;;;20.83;95.56
5691;BME280;2870;42.680;23.364;2023-06-10T06:57:09;94696.06;;;20.90;92.09
5691;BME280;2870;42.680;23.364;2023-06-10T06:59:36;94736.31;;;21.12;92.84
5691;BME280;2870;42.680;23.364;2023-06-10T07:02:03;94727.25;;;21.32;93.60
5691;BME280;2870;42.680;23.364;2023-06-10T07:04:31;94714.94;;;20.98;93.10
5691;BME280;2870;42.680;23.364;2023-06-10T07:06:58;94727.44;;;21.36;89.25
5691;BME280;2870;42.680;23.364;2023-06-10T07:09:25;94727.66;;;21.56;87.30
5691;BME280;2870;42.680;23.364;2023-06-10T07:11:53;94704.41;;;21.16;88.22
5691;BME280;2870;42.680;23.364;2023-06-10T07:14:20;94729.44;;;21.17;87.85
5691;BME280;2870;42.680;23.364;2023-06-10T07:16:47;94727.88;;;20.85;85.22
5691;BME280;2870;42.680;23.364;2023-06-10T07:19:15;94730.69;;;21.14;85.82
5691;BME280;2870;42.680;23.364;2023-06-10T07:21:43;94718.50;;;21.59;85.31
5691;BME280;2870;42.680;23.364;2023-06-10T07:24:10;94721.75;;;21.67;83.08
5691;BME280;2870;42.680;23.364;2023-06-10T07:26:37;94715.25;;;21.99;83.68
5691;BME280;2870;42.680;23.364;2023-06-10T07:29:04;94718.22;;;21.85;82.17
5691;BME280;2870;42.680;23.364;2023-06-10T07:31:30;94722.56;;;21.86;77.57
5691;BME280;2870;42.680;23.364;2023-06-10T07:33:57;94722.56;;;21.54;75.38
5691;BME280;2870;42.680;23.364;2023-06-10T07:36:24;94715.13;;;21.47;76.30
5691;BME280;2870;42.680;23.364;2023-06-10T07:38:54;94718.69;;;21.63;79.45
5691;BME280;2870;42.680;23.364;2023-06-10T07:41:22;94716.31;;;21.74;79.84
5691;BME280;2870;42.680;23.364;2023-06-10T07:43:50;94716.13;;;21.69;80.06
5691;BME280;2870;42.680;23.364;2023-06-10T07:46:20;94697.91;;;22.10;78.24
5691;BME280;2870;42.680;23.364;2023-06-10T07:48:47;94721.69;;;22.66;67.63
5691;BME280;2870;42.680;23.364;2023-06-10T07:51:15;94715.50;;;22.90;67.59
5691;BME280;2870;42.680;23.364;2023-06-10T07:53:42;94725.31;;;23.20;68.26
5691;BME280;2870;42.680;23.364;2023-06-10T07:56:10;94724.28;;;23.49;67.59
5691;BME280;2870;42.680;23.364;2023-06-10T07:58:37;94718.19;;;23.59;63.30
5691;BME280;2870;42.680;23.364;2023-06-10T08:01:04;94721.97;;;23.46;64.64
5691;BME280;2870;42.680;23.364;2023-06-10T08:03:31;94723.63;;;23.71;62.02
5691;BME280;2870;42.680;23.364;2023-06-10T08:05:58;94725.75;;;24.50;59.61
5691;BME280;2870;42.680;23.364;2023-06-10T08:08:24;94719.91;;;24.46;55.96
5691;BME280;2870;42.680;23.364;2023-06-10T08:10:51;94725.38;;;24.81;56.33
5691;BME280;2870;42.680;23.364;2023-06-10T08:13:20;94702.69;;;25.11;54.22
5691;BME280;2870;42.680;23.364;2023-06-10T08:15:47;94725.63;;;26.07;50.55
5691;BME280;2870;42.680;23.364;2023-06-10T08:18:15;94719.94;;;26.35;49.15
5691;BME280;2870;42.680;23.364;2023-06-10T08:20:42;94720.06;;;26.95;53.22
5691;BME280;2870;42.680;23.364;2023-06-10T08:23:09;94720.25;;;27.04;52.31
5691;BME280;2870;42.680;23.364;2023-06-10T08:25:36;94717.06;;;26.91;52.12
5691;BME280;2870;42.680;23.364;2023-06-10T08:28:02;94713.69;;;27.95;46.57
5691;BME280;2870;42.680;23.364;2023-06-10T08:30:31;94713.31;;;27.77;47.04
5691;BME280;2870;42.680;23.364;2023-06-10T08:32:57;94711.31;;;27.52;48.26
5691;BME280;2870;42.680;23.364;2023-06-10T08:35:24;94709.88;;;28.21;46.29
5691;BME280;2870;42.680;23.364;2023-06-10T08:37:51;94703.75;;;28.03;47.63
5691;BME280;2870;42.680;23.364;2023-06-10T08:40:18;94702.06;;;28.27;47.63
5691;BME280;2870;42.680;23.364;2023-06-10T08:42:49;94699.38;;;28.02;48.24
5691;BME280;2870;42.680;23.364;2023-06-10T08:45:20;94705.97;;;27.08;48.69
5691;BME280;2870;42.680;23.364;2023-06-10T08:47:50;94673.88;;;26.89;49.21
5691;BME280;2870;42.680;23.364;2023-06-10T08:50:18;94689.31;;;27.04;49.52
5691;BME280;2870;42.680;23.364;2023-06-10T08:52:48;94688.94;;;27.82;50.81
5691;BME280;2870;42.680;23.364;2023-06-10T08:55:21;94689.50;;;28.11;43.94
5691;BME280;2870;42.680;23.364;2023-06-10T08:57:51;94691.44;;;27.66;47.26
5691;BME280;2870;42.680;23.364;2023-06-10T09:00:18;94673.66;;;27.11;50.26
5691;BME280;2870;42.680;23.364;2023-06-10T09:02:46;94677.81;;;27.34;48.58
5691;BME280;2870;42.680;23.364;2023-06-10T09:05:15;94671.94;;;27.30;48.56
5691;BME280;2870;42.680;23.364;2023-06-10T09:07:42;94673.44;;;27.33;47.64
5691;BME280;2870;42.680;23.364;2023-06-10T09:10:11;94679.56;;;27.82;48.01
5691;BME280;2870;42.680;23.364;2023-06-10T09:12:38;94675.28;;;28.59;47.75
5691;BME280;2870;42.680;23.364;2023-06-10T09:15:06;94669.84;;;28.79;42.88
5691;BME280;2870;42.680;23.364;2023-06-10T09:17:33;94679.88;;;29.21;42.19
5691;BME280;2870;42.680;23.364;2023-06-10T09:20:01;94678.34;;;29.16;43.46
5691;BME280;2870;42.680;23.364;2023-06-10T09:22:29;94678.03;;;28.93;42.27
5691;BME280;2870;42.680;23.364;2023-06-10T09:25:02;94642.47;;;28.83;43.04
5691;BME280;2870;42.680;23.364;2023-06-10T09:27:30;94669.28;;;28.09;43.86
5691;BME280;2870;42.680;23.364;2023-06-10T09:29:58;94666.00;;;28.26;44.81
5691;BME280;2870;42.680;23.364;2023-06-10T09:32:25;94668.88;;;27.88;46.25
5691;BME280;2870;42.680;23.364;2023-06-10T09:34:53;94666.84;;;27.95;46.07
5691;BME280;2870;42.680;23.364;2023-06-10T09:37:21;94667.06;;;28.43;47.05
5691;BME280;2870;42.680;23.364;2023-06-10T09:40:02;94665.59;;;28.42;49.64
5691;BME280;2870;42.680;23.364;2023-06-10T09:42:33;94653.34;;;28.06;46.94
5691;BME280;2870;42.680;23.364;2023-06-10T09:45:00;94636.09;;;27.37;47.59
5691;BME280;2870;42.680;23.364;2023-06-10T09:47:28;94642.69;;;27.76;47.29
5691;BME280;2870;42.680;23.364;2023-06-10T09:49:55;94647.13;;;29.02;44.07
5691;BME280;2870;42.680;23.364;2023-06-10T09:52:22;94647.75;;;30.01;42.80
5691;BME280;2870;42.680;23.364;2023-06-10T09:54:50;94643.53;;;29.03;44.81
5691;BME280;2870;42.680;23.364;2023-06-10T09:57:19;94637.72;;;28.17;48.02
5691;BME280;2870;42.680;23.364;2023-06-10T09:59:46;94641.28;;;28.54;47.05
5691;BME280;2870;42.680;23.364;2023-06-10T10:02:16;94651.41;;;29.49;41.26
5691;BME280;2870;42.680;23.364;2023-06-10T10:04:43;94641.72;;;29.83;42.80
5691;BME280;2870;42.680;23.364;2023-06-10T10:07:11;94649.66;;;29.80;39.32
5691;BME280;2870;42.680;23.364;2023-06-10T10:09:38;94640.94;;;29.24;42.29
5691;BME280;2870;42.680;23.364;2023-06-10T10:12:08;94641.41;;;30.15;38.04
5691;BME280;2870;42.680;23.364;2023-06-10T10:14:39;94638.19;;;30.57;41.80
5691;BME280;2870;42.680;23.364;2023-06-10T10:17:09;94629.34;;;30.35;40.03
5691;BME280;2870;42.680;23.364;2023-06-10T10:19:41;94620.00;;;28.77;42.67
5691;BME280;2870;42.680;23.364;2023-06-10T10:22:15;94615.63;;;28.74;46.23
5691;BME280;2870;42.680;23.364;2023-06-10T10:24:49;94622.06;;;30.34;39.39
5691;BME280;2870;42.680;23.364;2023-06-10T10:27:18;94623.66;;;30.51;40.54
5691;BME280;2870;42.680;23.364;2023-06-10T10:29:52;94614.56;;;30.08;42.57
5691;BME280;2870;42.680;23.364;2023-06-10T10:32:25;94619.53;;;30.71;38.84
5691;BME280;2870;42.680;23.364;2023-06-10T10:34:57;94611.88;;;30.29;39.14
5691;BME280;2870;42.680;23.364;2023-06-10T10:37:27;94615.19;;;29.40;42.56
5691;BME280;2870;42.680;23.364;2023-06-10T10:39:54;94603.50;;;29.32;41.71
5691;BME280;2870;42.680;23.364;2023-06-10T10:42:22;94607.47;;;29.57;43.55
5691;BME280;2870;42.680;23.364;2023-06-10T10:44:51;94595.78;;;29.49;43.27
5691;BME280;2870;42.680;23.364;2023-06-10T10:47:21;94608.09;;;29.51;40.75
5691;BME280;2870;42.680;23.364;2023-06-10T10:49:50;94592.13;;;29.46;42.98
5691;BME280;2870;42.680;23.364;2023-06-10T10:52:17;94594.59;;;29.14;42.54
5691;BME280;2870;42.680;23.364;2023-06-10T10:54:46;94596.25;;;28.81;42.37
5691;BME280;2870;42.680;23.364;2023-06-10T10:57:14;94589.09;;;27.99;41.34
5691;BME280;2870;42.680;23.364;2023-06-10T10:59:45;94584.97;;;27.72;43.59
5691;BME280;2870;42.680;23.364;2023-06-10T11:02:17;94590.31;;;28.28;46.27
5691;BME280;2870;42.680;23.364;2023-06-10T11:04:45;94589.47;;;28.62;42.96
5691;BME280;2870;42.680;23.364;2023-06-10T11:07:13;94589.06;;;28.37;44.26
5691;BME280;2870;42.680;23.364;2023-06-10T11:09:58;94568.47;;;28.15;43.41
5691;BME280;2870;42.680;23.364;2023-06-10T11:12:26;94574.19;;;28.13;42.73
5691;BME280;2870;42.680;23.364;2023-06-10T11:14:55;94566.94;;;28.10;43.31
5691;BME280;2870;42.680;23.364;2023-06-10T11:17:24;94554.66;;;27.33;43.75
5691;BME280;2870;42.680;23.364;2023-06-10T11:19:50;94548.16;;;27.68;43.65
5691;BME280;2870;42.680;23.364;2023-06-10T11:22:17;94555.22;;;27.61;43.43
5691;BME280;2870;42.680;23.364;2023-06-10T11:24:48;94547.91;;;26.88;45.02
5691;BME280;2870;42.680;23.364;2023-06-10T11:27:17;94547.19;;;26.87;46.29
5691;BME280;2870;42.680;23.364;2023-06-10T11:30:17;94538.94;;;27.06;46.85
5691;BME280;2870;42.680;23.364;2023-06-10T11:32:50;94542.25;;;26.92;47.99
5691;BME280;2870;42.680;23.364;2023-06-10T11:35:19;94542.50;;;27.36;48.08
5691;BME280;2870;42.680;23.364;2023-06-10T11:37:47;94533.53;;;27.20;46.78
5691;BME280;2870;42.680;23.364;2023-06-10T11:40:14;94537.59;;;27.09;48.83
5691;BME280;2870;42.680;23.364;2023-06-10T11:42:42;94537.69;;;27.13;44.82
5691;BME280;2870;42.680;23.364;2023-06-10T11:45:09;94534.50;;;27.33;43.80
5691;BME280;2870;42.680;23.364;2023-06-10T11:47:36;94531.56;;;27.29;43.52
5691;BME280;2870;42.680;23.364;2023-06-10T11:50:06;94533.31;;;27.10;45.96
5691;BME280;2870;42.680;23.364;2023-06-10T11:52:32;94531.22;;;27.12;43.83
5691;BME280;2870;42.680;23.364;2023-06-10T11:55:04;94532.81;;;27.21;43.67
5691;BME280;2870;42.680;23.364;2023-06-10T11:57:34;94535.53;;;27.13;41.51
5691;BME280;2870;42.680;23.364;2023-06-10T12:00:04;94531.06;;;27.40;42.42
5691;BME280;2870;42.680;23.364;2023-06-10T12:02:31;94531.75;;;27.77;40.04
5691;BME280;2870;42.680;23.364;2023-06-10T12:05:11;94533.38;;;27.86;39.11
5691;BME280;2870;42.680;23.364;2023-06-10T12:07:38;94524.91;;;27.96;39.39
5691;BME280;2870;42.680;23.364;2023-06-10T12:10:05;94513.88;;;27.85;39.37
5691;BME280;2870;42.680;23.364;2023-06-10T12:12:34;94496.78;;;27.57;39.22
5691;BME280;2870;42.680;23.364;2023-06-10T12:15:02;94518.53;;;27.64;38.24
5691;BME280;2870;42.680;23.364;2023-06-10T12:17:37;94524.41;;;28.08;37.53
5691;BME280;2870;42.680;23.364;2023-06-10T12:20:06;94523.75;;;27.35;38.14
5691;BME280;2870;42.680;23.364;2023-06-10T12:22:38;94519.66;;;27.46;37.62
5691;BME280;2870;42.680;23.364;2023-06-10T12:25:06;94514.53;;;27.43;38.37
5691;BME280;2870;42.680;23.364;2023-06-10T12:27:34;94510.63;;;27.28;40.72
5691;BME280;2870;42.680;23.364;2023-06-10T12:30:03;94505.44;;;27.57;39.15
5691;BME280;2870;42.680;23.364;2023-06-10T12:32:38;94509.88;;;27.26;40.30
5691;BME280;2870;42.680;23.364;2023-06-10T12:35:07;94507.69;;;27.62;39.59
5691;BME280;2870;42.680;23.364;2023-06-10T12:37:34;94508.38;;;27.61;38.41
5691;BME280;2870;42.680;23.364;2023-06-10T12:40:05;94499.34;;;26.70;39.56
5691;BME280;2870;42.680;23.364;2023-06-10T12:42:32;94488.63;;;26.73;39.86
5691;BME280;2870;42.680;23.364;2023-06-10T12:45:00;94496.78;;;26.84;39.79
5691;BME280;2870;42.680;23.364;2023-06-10T12:47:31;94495.00;;;27.37;41.59
5691;BME280;2870;42.680;23.364;2023-06-10T12:50:02;94490.00;;;27.40;39.61
5691;BME280;2870;42.680;23.364;2023-06-10T12:52:29;94490.78;;;27.44;38.54
5691;BME280;2870;42.680;23.364;2023-06-10T12:54:56;94492.75;;;27.00;38.92
5691;BME280;2870;42.680;23.364;2023-06-10T12:57:25;94492.88;;;27.06;38.96
5691;BME280;2870;42.680;23.364;2023-06-10T12:59:52;94492.13;;;27.39;38.21
5691;BME280;2870;42.680;23.364;2023-06-10T13:02:19;94493.25;;;27.60;39.93
5691;BME280;2870;42.680;23.364;2023-06-10T13:04:49;94496.00;;;27.16;39.29
5691;BME280;2870;42.680;23.364;2023-06-10T13:07:16;94491.03;;;27.57;38.67
5691;BME280;2870;42.680;23.364;2023-06-10T13:09:43;94496.78;;;27.57;38.85